EGVN

RAF Brize Norton Airport

Brize Norton, United Kingdom
METAR EGVN 191450Z 07015KT 9999 FEW028 BKN050 07/03 Q1019 NOSIG
Observed Flight Rules
Nov-19 @ 14:50 UTC (50 minutes ago) Visual Flight Rules
Wind Visibility Clouds
70° at 15 knots 10,000+ meters
  • Few at 2,800' AGL
  • Broken at 5,000' AGL
Temperatures Readings
Current 7°C / 45°F
Dewpoint 3°C / 37°F
Humidity 76%
Altimeter 30.09" Hg
Pressure 1019 hPa
Elevation 88
METAR EGVN 191450Z 07015KT 9999 FEW028 BKN050 07/03 Q1019 NOSIG
Observed Flight Rules
Nov-19 @ 14:50 UTC
(50 minutes ago)
VFR
Wind Visibility
70° at 15 knots 10,000+ meters
Clouds
  • Few at 2,800' AGL
  • Broken at 5,000' AGL
Temperature Dewpoint
7°C / 45°F 3°C / 37°F
Humidity Altimeter Pressure
76% 30.09" Hg 1019 hPa